Airfield :
LOGIN :

Register | Disclaimer

   EN    FR    IT 

 










Legend :    VFR   Marginal VFR   IFR   Intensive IFR   Very Intensive IFR
Visi :
Ceiling :
>= 8 km
>= 3000ft
5 to 8 km
1000 to 3000 ft
1500m to 5 km
500 to 1000 ft
800 to 1500m
200 to 500 ft
< 800m
< 200 ft
Symbols :   Thunderstorms  Fog  Heavy snow  Heavy precipitations  Wind > 20 kt
SIGMETs :     Misc.  Thunderstorms  Icing  Turbulence  Mountain Waves  Volcanic Ashes






- Airport Elevation : 226 ft
- IATA code : BEX


EGUB - RAF Benson

CURRENT METAR :
  • 162020Z AUTO 21007KT 9999 FEW065/// 15/10 Q1005

EXPIRED METARs :
  • 161950Z AUTO 23006KT 9999 FEW088/// 16/09 Q1004
  • 161920Z AUTO 21009KT 9999 FEW250/// 17/09 Q1004
  • 161850Z AUTO 22009KT 9999 FEW088/// 18/09 Q1004
  • 161820Z AUTO 21010KT 9999 FEW051/// BKN079/// 19/08 Q1003
  • 161750Z AUTO 22011KT 9999 OVC075/// 19/07 Q1003
  • 161720Z AUTO 22011KT 9999 FEW057/// OVC072/// 19/07 Q1003
  • 161650Z AUTO 23010KT 9999 FEW057/// SCT088/// 19/06 Q1003
  • 161620Z AUTO 24010KT 9999 SCT079/// 20/07 Q1003
  • 161550Z AUTO 25009KT 9999 BKN055/// 20/08 Q1002

Expired Forecast.
ATIS : +44 1491-837766 (x7524)



MET'MAP, your aeronautical weather chart ! - Copyright ORBIFLY December 2007 - Disclaimer

ORBIFLY MET'MAP TEAM :

Programming & Development : Alexandra Zaïnal
Original concept : Baudouin d'Aumeries
Technical & hardware support : Manuel Goepfert
Assistance : Marc-Olivier Méhu




SOURCES & CREDITS :

   NOAA